Pagrindinis puslapis
METAR-TAF:

METAR-TAF

Oro uostai :

Wattisham, Anglija

platuma: 52-07N, ilguma: 000-58E, Aukštis: 87 m

Dabartinis oras

Ataskaita buvo paskelbta 31 minutes, ne 20:50 UTC
Vėjas 6 kt iš Vakarų
Temperatūra 0°C
Drėgmė 93%
Slėgis 1044 hPa
Matomumas 10 km arba daugiau
nėra debesų žemiau 1500 m ir nėra kamuolinių lietaus debesų

METAR: EGUW 202050Z 26006KT CAVOK M00/M01 Q1044 NOSIG RMK BLU BLU

Laikas: 21:21 (21:21 UTC)

Prognozė

Ataskaita buvo paskelbta 1 valandą ir 47 minutes, ne 19:34 UTC
Prognozė galioja nuo 20 metu 21 UTC su 20 metu 24 UTC
Vėjas 5 kt iš Vakarų/Pietvakarių
Matomumas 10 km arba daugiau
nėra debesų žemiau 1500 m ir nėra kamuolinių lietaus debesų
Tikimybė 40%
nuo 20 metu 21 UTC su 20 metu 24 UTC
Matomumas: 7000 m
rūkana

TAF: EGUW 201934Z 2021/2024 25005KT CAVOK PROB40 2021/2024 7000 BR

Orai ataskaitas ir orų prognozės (METAR, TAF).

turimą stotys yra geltonos ir raudonos taškus žemėlapyje.

Perkelti pele per norėdami pamatyti stoties vardą.

Tada spustelėkite, norėdami matyti oro stebėjimo ir prognozės.

Norėdami pakeisti žemėlapį: spustelėkite ant žalios mygtukų su juodo kryžiaus žemyn,; žalią mygtuką su brūkšneliu, jei norite nutolinti; arba žalių rodyklių gretimoms žemėlapius.


METAR-TAF: